メインページ
METAR-TAF:

METAR-TAF

空港 :

ラ・アウロラ国際空港

グアテマラシティ, グアテマラ

緯度: 14-35N, 経度: 090-31W, 海抜: 1489m

現時点の気象観測

当レポートは41分前の09:00(UTC)に作成
無風
気温 19°C
湿度 88%
気圧 1022 hPa
視程: 7000m
高度1400ftの雲は散在している
高度8000ftの雲は散在している

METAR: MGGT 200900Z 000000KT 7000 SCT014 SCT080 19/17 Q1022 A3018 BR

時間: 03:41 (09:41 UTC)

予報

当レポートは4時間41分前の05:00(UTC)に作成
予報は20日の 06時(UTC)から 21日の 06時(UTC)まで有効
変向風 3kt
視程: 8000m
高度1600ftの千切れ雲あり
20日の 06時(UTC)から 20日の 12時(UTC)まで一時的に
の風 kt
視程: 5000m
高度1200ftの千切れ雲あり
靄, 雨, 霧雨
20日の 15時(UTC)から 20日の 17時(UTC)まで徐々に
の風 8kt
視程: 8000m
高度1800ftの雲は散在している
20日の 21時(UTC)から 20日の 24時(UTC)まで一時的に
高度2500ftの雲はほとんどない, 積乱雲.
近辺でにわか雨
21日の 00時(UTC)から 21日の 02時(UTC)まで徐々に
変向風 3kt
高度1600ftの雲は散在している
確率 40%
21日の 01時(UTC)から 21日の 05時(UTC)まで
高度1600ftの千切れ雲あり
小雨, 霧雨

TAF: MGGT 200500Z 2006/2106 VRB03KT 8000 BKN016 TX26/2020Z TN17/2012Z TEMPO 2006/2012 00000KT 5000 BR RADZ BKN012 BECMG 2015/2017 18008KT 8000 SCT018 TEMPO 2021/2024 VCSH FEW025CB BECMG 2100/2102 VRB03KT SCT016 PROB40 2101/2105 -RADZ BKN016

4,000以上の空港の気象観測と天気予報(METAR報とTAF報)

利用可能な観測所は地図上に黄色い丸と赤い丸で示す。

丸の上にカーソルを重ねると観測所名を参照できる。

次にクリックすると気象観測と天気予報を参照できる。

マップの切り替え:黒色「×」印の緑ボタンをクリックして拡大、「-」印の緑ボタンをクリックして縮小、緑色の三角印をクリックして隣りの地図に切り替え


METAR-TAF: